createdAt,value
2023-02-15T00:00:11.021Z,99140.59
2023-02-15T00:02:37.536Z,99154.41
2023-02-15T00:05:04.986Z,99153.06
2023-02-15T00:07:31.573Z,99142.72
2023-02-15T00:09:58.139Z,99139.00
2023-02-15T00:12:24.692Z,99145.34
2023-02-15T00:14:53.378Z,99142.69
2023-02-15T00:17:20.097Z,99139.53
2023-02-15T00:19:46.597Z,99145.09
2023-02-15T00:22:19.657Z,99136.84
2023-02-15T00:24:46.186Z,99150.66
2023-02-15T00:27:13.040Z,99153.56
2023-02-15T00:29:39.745Z,99149.03
2023-02-15T00:32:07.154Z,99150.13
2023-02-15T00:34:35.932Z,99145.06
2023-02-15T00:37:04.244Z,99145.88
2023-02-15T00:39:30.888Z,99143.22
2023-02-15T00:41:57.439Z,99146.38
2023-02-15T00:44:32.524Z,99141.34
2023-02-15T00:46:59.056Z,99132.06
2023-02-15T00:49:25.626Z,99135.78
2023-02-15T00:51:52.210Z,99136.84
2023-02-15T00:54:21.042Z,99140.00
2023-02-15T00:56:47.503Z,99134.69
2023-02-15T00:59:14.280Z,99137.88
2023-02-15T01:01:40.828Z,99140.22
2023-02-15T01:04:07.456Z,99139.44
2023-02-15T01:06:38.532Z,99143.16
2023-02-15T01:09:05.103Z,99142.06
2023-02-15T01:11:31.640Z,99136.19
2023-02-15T01:13:59.282Z,99137.50
2023-02-15T01:16:29.285Z,99140.72
2023-02-15T01:18:56.439Z,99139.41
2023-02-15T01:21:29.686Z,99135.69
2023-02-15T01:23:56.262Z,99133.31
2023-02-15T01:26:22.898Z,99139.94
2023-02-15T01:28:54.019Z,99142.00
2023-02-15T01:31:22.040Z,99135.09
2023-02-15T01:33:49.337Z,99141.72
2023-02-15T01:36:17.642Z,99132.41
2023-02-15T01:38:44.145Z,99133.50
2023-02-15T01:41:30.280Z,99135.63
2023-02-15T01:43:58.217Z,99140.94
2023-02-15T01:46:38.442Z,99148.66
2023-02-15T01:49:13.125Z,99144.16
2023-02-15T01:51:47.239Z,99147.34
2023-02-15T01:54:18.012Z,99141.25
2023-02-15T01:56:44.750Z,99154.25
2023-02-15T01:59:17.795Z,99145.47
2023-02-15T02:01:45.588Z,99144.16
2023-02-15T02:04:25.778Z,99141.53
2023-02-15T02:06:53.756Z,99143.13
2023-02-15T02:09:20.263Z,99137.81
2023-02-15T02:11:51.195Z,99141.25
2023-02-15T02:14:18.318Z,99135.41
2023-02-15T02:17:06.426Z,99139.34
2023-02-15T02:20:01.021Z,99139.66
2023-02-15T02:22:48.542Z,99134.34
2023-02-15T02:25:51.834Z,99137.78
2023-02-15T02:28:40.182Z,99139.34
2023-02-15T02:31:12.663Z,99127.94
2023-02-15T02:34:13.477Z,99135.09
2023-02-15T02:37:11.570Z,99131.63
2023-02-15T02:39:56.577Z,99127.13
2023-02-15T02:42:32.177Z,99131.34
2023-02-15T02:45:07.573Z,99131.03
2023-02-15T02:47:43.364Z,99124.66
2023-02-15T02:50:15.355Z,99131.78
2023-02-15T02:52:52.749Z,99131.25
2023-02-15T02:55:26.533Z,99125.41
2023-02-15T02:57:58.766Z,99124.31
2023-02-15T03:00:28.986Z,99120.09
2023-02-15T03:03:06.131Z,99117.41
2023-02-15T03:05:35.644Z,99120.84
2023-02-15T03:08:07.232Z,99116.56
2023-02-15T03:10:41.947Z,99118.13
2023-02-15T03:13:11.340Z,99112.00
2023-02-15T03:16:01.215Z,99110.66
2023-02-15T03:18:35.155Z,99110.91
2023-02-15T03:21:03.754Z,99116.47
2023-02-15T03:23:32.985Z,99118.09
2023-02-15T03:26:06.401Z,99119.91
2023-02-15T03:28:39.568Z,99122.56
2023-02-15T03:31:10.785Z,99124.16
2023-02-15T03:33:43.223Z,99118.88
2023-02-15T03:36:26.764Z,99123.06
2023-02-15T03:39:03.433Z,99118.03
2023-02-15T03:41:38.439Z,99121.72
2023-02-15T03:44:15.077Z,99121.94
2023-02-15T03:46:49.116Z,99114.75
2023-02-15T03:49:24.514Z,99118.47
2023-02-15T03:51:57.175Z,99117.09
2023-02-15T03:54:44.480Z,99117.16
2023-02-15T03:57:42.003Z,99113.56
2023-02-15T04:00:41.247Z,99112.09
2023-02-15T04:03:15.417Z,99107.91
2023-02-15T04:05:43.760Z,99113.53
2023-02-15T04:08:11.450Z,99117.22
2023-02-15T04:10:53.297Z,99119.91
2023-02-15T04:13:24.834Z,99124.44
2023-02-15T04:16:05.707Z,99119.91
2023-02-15T04:19:02.719Z,99116.47
2023-02-15T04:21:52.456Z,99108.78
2023-02-15T04:24:38.364Z,99119.13
2023-02-15T04:27:05.867Z,99119.69
2023-02-15T04:29:32.785Z,99112.78
2023-02-15T04:32:00.811Z,99112.78
2023-02-15T04:34:29.651Z,99112.00
2023-02-15T04:36:56.241Z,99113.31
2023-02-15T04:39:22.779Z,99113.59
2023-02-15T04:41:51.440Z,99108.81
2023-02-15T04:44:20.017Z,99114.94
2023-02-15T04:46:46.533Z,99117.31
2023-02-15T04:49:13.214Z,99121.03
2023-02-15T04:51:39.849Z,99114.13
2023-02-15T04:54:06.396Z,99112.81
2023-02-15T04:56:36.663Z,99111.75
2023-02-15T04:59:03.203Z,99110.41
2023-02-15T05:01:30.029Z,99103.25
2023-02-15T05:03:56.624Z,99108.03
2023-02-15T05:06:23.516Z,99109.06
2023-02-15T05:08:52.043Z,99109.88
2023-02-15T05:11:20.706Z,99105.63
2023-02-15T05:13:47.856Z,99118.91
2023-02-15T05:16:14.394Z,99108.81
2023-02-15T05:18:41.114Z,99108.81
2023-02-15T05:21:07.850Z,99111.19
2023-02-15T05:23:34.558Z,99109.38
2023-02-15T05:26:21.361Z,99101.66
2023-02-15T05:28:47.891Z,99111.22
2023-02-15T05:31:18.147Z,99111.25
2023-02-15T05:33:47.067Z,99113.91
2023-02-15T05:36:14.002Z,99117.63
2023-02-15T05:38:40.975Z,99113.66
2023-02-15T05:41:09.393Z,99117.34
2023-02-15T05:43:36.168Z,99124.78
2023-02-15T05:46:05.272Z,99117.66
2023-02-15T05:48:34.680Z,99125.59
2023-02-15T05:51:16.930Z,99125.34
2023-02-15T05:53:43.688Z,99128.25
2023-02-15T05:56:11.788Z,99133.28
2023-02-15T05:58:40.427Z,99134.34
2023-02-15T06:01:16.153Z,99130.66
2023-02-15T06:03:42.849Z,99139.13
2023-02-15T06:06:09.418Z,99133.81
2023-02-15T06:08:37.408Z,99139.66
2023-02-15T06:11:05.248Z,99141.53
2023-02-15T06:13:39.069Z,99140.97
2023-02-15T06:16:06.892Z,99134.88
2023-02-15T06:18:33.522Z,99134.84
2023-02-15T06:21:00.159Z,99135.63
2023-02-15T06:23:31.126Z,99141.19
2023-02-15T06:25:58.387Z,99137.75
2023-02-15T06:28:26.502Z,99136.97
2023-02-15T06:30:53.474Z,99145.19
2023-02-15T06:33:24.395Z,99145.19
2023-02-15T06:35:50.945Z,99144.91
2023-02-15T06:38:20.265Z,99145.69
2023-02-15T06:40:47.581Z,99146.25
2023-02-15T06:43:14.481Z,99147.84
2023-02-15T06:45:45.171Z,99148.88
2023-02-15T06:48:12.212Z,99152.88
2023-02-15T06:50:38.720Z,99153.19
2023-02-15T06:53:09.648Z,99152.41
2023-02-15T06:55:36.281Z,99156.34
2023-02-15T06:58:02.789Z,99160.34
2023-02-15T07:00:29.396Z,99155.34
2023-02-15T07:02:58.911Z,99160.66
2023-02-15T07:05:33.672Z,99155.38
2023-02-15T07:08:06.182Z,99162.31
2023-02-15T07:10:38.196Z,99164.72
2023-02-15T07:13:05.424Z,99158.66
2023-02-15T07:15:31.887Z,99162.91
2023-02-15T07:17:59.546Z,99165.84
2023-02-15T07:20:26.074Z,99161.34
2023-02-15T07:22:52.841Z,99162.41
2023-02-15T07:25:21.283Z,99169.06
2023-02-15T07:27:47.866Z,99159.19
2023-02-15T07:30:17.698Z,99157.09
2023-02-15T07:33:05.894Z,99158.13
2023-02-15T07:35:33.451Z,99161.31
2023-02-15T07:37:59.963Z,99154.63
2023-02-15T07:40:28.422Z,99154.41
2023-02-15T07:42:55.972Z,99146.94
2023-02-15T07:45:23.004Z,99148.50
2023-02-15T07:47:53.290Z,99147.94
2023-02-15T07:50:19.832Z,99157.25
2023-02-15T07:52:46.424Z,99151.63
2023-02-15T07:55:15.500Z,99147.06
2023-02-15T07:57:46.411Z,99152.06
2023-02-15T08:00:15.031Z,99148.28
2023-02-15T08:02:41.611Z,99157.31
2023-02-15T08:05:08.622Z,99152.19
2023-02-15T08:07:35.149Z,99138.53
2023-02-15T08:10:03.374Z,99141.19
2023-02-15T08:12:30.194Z,99141.66
2023-02-15T08:15:02.550Z,99132.69
2023-02-15T08:17:29.161Z,99134.22
2023-02-15T08:19:55.636Z,99139.25
2023-02-15T08:22:22.115Z,99132.25
2023-02-15T08:24:50.556Z,99135.00
2023-02-15T08:27:19.403Z,99131.25
2023-02-15T08:29:45.913Z,99131.09
2023-02-15T08:32:15.470Z,99135.88
2023-02-15T08:34:43.157Z,99134.69
2023-02-15T08:37:10.369Z,99138.59
2023-02-15T08:39:37.193Z,99140.53
2023-02-15T08:42:03.813Z,99134.44
2023-02-15T08:44:30.644Z,99138.09
2023-02-15T08:47:03.826Z,99135.44
2023-02-15T08:49:30.646Z,99125.47
2023-02-15T08:51:57.128Z,99127.78
2023-02-15T08:54:25.448Z,99122.19
2023-02-15T08:56:52.023Z,99124.59
2023-02-15T08:59:21.147Z,99120.75
2023-02-15T09:01:49.307Z,99122.16
2023-02-15T09:04:16.907Z,99119.63
2023-02-15T09:06:47.646Z,99124.25
2023-02-15T09:09:23.890Z,99123.22
2023-02-15T09:11:56.774Z,99113.16
2023-02-15T09:14:32.525Z,99111.75
2023-02-15T09:16:59.060Z,99105.97
2023-02-15T09:19:26.072Z,99109.59
2023-02-15T09:21:52.887Z,99114.00
2023-02-15T09:24:20.128Z,99109.59
2023-02-15T09:26:48.433Z,99102.16
2023-02-15T09:29:17.450Z,99105.84
2023-02-15T09:31:46.606Z,99102.72
2023-02-15T09:34:15.032Z,99102.25
2023-02-15T09:36:46.495Z,99089.91
2023-02-15T09:39:15.841Z,99099.63
2023-02-15T09:42:05.727Z,99095.81
2023-02-15T09:44:56.752Z,99084.31
2023-02-15T09:48:00.112Z,99093.44
2023-02-15T09:50:32.656Z,99100.94
2023-02-15T09:53:29.468Z,99087.34
2023-02-15T09:56:18.624Z,99092.59
2023-02-15T09:58:59.561Z,99091.72
2023-02-15T10:01:40.849Z,99083.63
2023-02-15T10:04:25.784Z,99090.97
2023-02-15T10:07:07.546Z,99091.47
2023-02-15T10:09:59.415Z,99093.00
2023-02-15T10:13:04.749Z,99094.22
2023-02-15T10:16:03.755Z,99093.78
2023-02-15T10:18:39.830Z,99088.22
2023-02-15T10:21:21.626Z,99082.03
2023-02-15T10:24:26.655Z,99069.72
2023-02-15T10:27:04.085Z,99071.72
2023-02-15T10:29:38.686Z,99075.19
2023-02-15T10:32:27.677Z,99074.59
2023-02-15T10:35:06.907Z,99068.16
2023-02-15T10:37:50.967Z,99075.06
2023-02-15T10:40:29.633Z,99085.00
2023-02-15T10:43:26.223Z,99073.13
2023-02-15T10:45:58.502Z,99066.56
2023-02-15T10:49:06.520Z,99066.56
2023-02-15T10:51:45.440Z,99070.53
2023-02-15T10:54:37.526Z,99061.41
2023-02-15T10:57:10.327Z,99053.34
2023-02-15T10:59:59.317Z,99048.59
2023-02-15T11:03:06.705Z,99043.28
2023-02-15T11:06:05.695Z,99038.91
2023-02-15T11:08:37.817Z,99038.69
2023-02-15T11:11:28.511Z,99028.22
2023-02-15T11:14:06.867Z,99031.81
2023-02-15T11:16:38.409Z,99026.41
2023-02-15T11:19:10.597Z,99024.31
2023-02-15T11:21:52.803Z,99017.63
2023-02-15T11:24:23.783Z,99013.22
2023-02-15T11:27:21.682Z,99022.84
2023-02-15T11:30:01.605Z,99013.69
2023-02-15T11:32:40.150Z,99001.59
2023-02-15T11:35:15.724Z,99008.28
2023-02-15T11:37:49.732Z,99006.44
2023-02-15T11:40:27.699Z,99002.19
2023-02-15T11:42:57.536Z,98997.31
2023-02-15T11:45:28.265Z,98995.28
2023-02-15T11:47:55.993Z,98993.28
2023-02-15T11:50:28.854Z,98997.91
2023-02-15T11:53:01.338Z,98985.75
2023-02-15T11:55:30.420Z,98982.47
2023-02-15T11:58:15.459Z,98977.13
2023-02-15T12:00:47.198Z,98974.81
2023-02-15T12:03:20.962Z,98964.53
2023-02-15T12:05:56.232Z,98969.44
2023-02-15T12:08:23.188Z,98960.44
2023-02-15T12:11:04.477Z,98955.53
2023-02-15T12:13:31.324Z,98957.44
2023-02-15T12:16:00.023Z,98956.50
2023-02-15T12:18:44.332Z,98956.50
2023-02-15T12:21:15.638Z,98954.75
2023-02-15T12:23:51.028Z,98952.09
2023-02-15T12:26:36.022Z,98949.25
2023-02-15T12:29:15.478Z,98938.97
2023-02-15T12:31:45.003Z,98943.41
2023-02-15T12:34:33.133Z,98929.50
2023-02-15T12:37:09.125Z,98935.03
2023-02-15T12:39:42.097Z,98926.81
2023-02-15T12:42:20.308Z,98929.03
2023-02-15T12:45:00.926Z,98927.28
2023-02-15T12:47:29.369Z,98931.88
2023-02-15T12:50:37.485Z,98925.41
2023-02-15T12:53:15.181Z,98915.75
2023-02-15T12:56:02.459Z,98912.75
2023-02-15T12:58:31.903Z,98909.91
2023-02-15T13:01:16.861Z,98910.84
2023-02-15T13:04:05.430Z,98917.50
2023-02-15T13:06:37.914Z,98918.94
2023-02-15T13:09:18.914Z,98911.31
2023-02-15T13:11:46.461Z,98904.03
2023-02-15T13:14:33.308Z,98899.75
2023-02-15T13:17:08.948Z,98899.13
2023-02-15T13:19:41.910Z,98891.53
2023-02-15T13:22:15.717Z,98895.16
2023-02-15T13:24:49.784Z,98886.94
2023-02-15T13:27:20.673Z,98880.63
2023-02-15T13:30:00.290Z,98878.53
2023-02-15T13:32:32.117Z,98877.72
2023-02-15T13:35:00.951Z,98879.94
2023-02-15T13:37:48.815Z,98868.66
2023-02-15T13:40:51.184Z,98866.28
2023-02-15T13:43:34.680Z,98870.88
2023-02-15T13:46:13.064Z,98865.97
2023-02-15T13:49:06.208Z,98862.78
2023-02-15T13:52:01.060Z,98859.75
2023-02-15T13:54:56.381Z,98857.56
2023-02-15T13:58:09.371Z,98862.47
2023-02-15T14:00:45.643Z,98859.13
2023-02-15T14:03:21.148Z,98859.91
2023-02-15T14:06:01.922Z,98854.66
2023-02-15T14:08:55.321Z,98852.91
2023-02-15T14:11:55.252Z,98849.09
2023-02-15T14:14:33.983Z,98857.19
2023-02-15T14:17:11.538Z,98854.75
2023-02-15T14:19:46.844Z,98854.31
2023-02-15T14:22:48.241Z,98849.88
2023-02-15T14:25:18.450Z,98850.66
2023-02-15T14:27:53.341Z,98852.06
2023-02-15T14:30:25.632Z,98850.66
2023-02-15T14:33:15.620Z,98844.59
2023-02-15T14:35:43.894Z,98851.25
2023-02-15T14:38:10.373Z,98846.97
2023-02-15T14:41:04.382Z,98850.59
2023-02-15T14:43:49.931Z,98849.00
2023-02-15T14:46:31.017Z,98845.69
2023-02-15T14:49:06.663Z,98841.84
2023-02-15T14:51:51.445Z,98845.81
2023-02-15T14:54:19.816Z,98844.38
2023-02-15T14:56:47.412Z,98838.97
2023-02-15T14:59:24.716Z,98845.41
2023-02-15T15:01:57.165Z,98840.34
2023-02-15T15:04:39.523Z,98840.84
2023-02-15T15:07:38.682Z,98841.94
2023-02-15T15:10:30.472Z,98839.25
2023-02-15T15:12:58.212Z,98842.41
2023-02-15T15:15:30.728Z,98844.31
2023-02-15T15:18:13.305Z,98837.34
2023-02-15T15:20:52.352Z,98836.22
2023-02-15T15:23:23.527Z,98832.28
2023-02-15T15:25:53.278Z,98834.34
2023-02-15T15:28:38.130Z,98825.78
2023-02-15T15:31:18.588Z,98831.50
2023-02-15T15:34:14.363Z,98832.50
2023-02-15T15:36:49.378Z,98835.03
2023-02-15T15:40:01.184Z,98833.00
2023-02-15T15:42:49.233Z,98832.84
2023-02-15T15:45:45.291Z,98842.25
2023-02-15T15:48:30.244Z,98844.47
2023-02-15T15:51:05.569Z,98837.84
2023-02-15T15:53:39.058Z,98843.72
2023-02-15T15:56:16.629Z,98840.75
2023-02-15T15:58:49.937Z,98841.75
2023-02-15T16:01:17.446Z,98840.31
2023-02-15T16:03:55.008Z,98838.16
2023-02-15T16:06:36.272Z,98851.28
2023-02-15T16:09:14.018Z,98841.72
2023-02-15T16:11:43.509Z,98840.56
2023-02-15T16:14:14.626Z,98854.06
2023-02-15T16:16:42.312Z,98850.59
2023-02-15T16:19:20.024Z,98857.88
2023-02-15T16:21:49.859Z,98854.09
2023-02-15T16:24:26.562Z,98858.69
2023-02-15T16:27:08.378Z,98869.59
2023-02-15T16:29:37.260Z,98860.13
2023-02-15T16:32:07.853Z,98859.34
2023-02-15T16:34:34.552Z,98862.84
2023-02-15T16:37:28.754Z,98868.50
2023-02-15T16:39:56.552Z,98867.88
2023-02-15T16:42:23.625Z,98874.84
2023-02-15T16:45:03.422Z,98871.69
2023-02-15T16:47:34.704Z,98873.88
2023-02-15T16:50:05.038Z,98873.56
2023-02-15T16:52:36.359Z,98875.94
2023-02-15T16:55:07.395Z,98878.13
2023-02-15T16:57:37.665Z,98877.66
2023-02-15T17:00:19.759Z,98883.66
2023-02-15T17:02:56.812Z,98887.28
2023-02-15T17:05:33.369Z,98890.91
2023-02-15T17:08:07.841Z,98892.31
2023-02-15T17:10:37.769Z,98893.25
2023-02-15T17:13:11.682Z,98899.38
2023-02-15T17:15:43.586Z,98904.28
2023-02-15T17:18:13.045Z,98904.91
2023-02-15T17:20:42.924Z,98911.06
2023-02-15T17:23:31.266Z,98918.63
2023-02-15T17:26:01.701Z,98914.38
2023-02-15T17:28:31.974Z,98924.28
2023-02-15T17:30:59.749Z,98927.25
2023-02-15T17:33:35.434Z,98928.16
2023-02-15T17:36:22.524Z,98933.91
2023-02-15T17:38:57.973Z,98941.09
2023-02-15T17:41:32.197Z,98934.63
2023-02-15T17:43:58.815Z,98937.91
2023-02-15T17:46:26.488Z,98940.19
2023-02-15T17:48:57.564Z,98951.84
2023-02-15T17:51:24.211Z,98948.25
2023-02-15T17:54:11.246Z,98941.75
2023-02-15T17:56:38.968Z,98943.94
2023-02-15T17:59:11.305Z,98946.13
2023-02-15T18:02:05.444Z,98953.19
2023-02-15T18:04:53.281Z,98952.75
2023-02-15T18:07:38.861Z,98952.13
2023-02-15T18:10:38.373Z,98950.34
2023-02-15T18:13:06.636Z,98951.53
2023-02-15T18:15:33.275Z,98948.47
2023-02-15T18:17:59.966Z,98955.16
2023-02-15T18:20:34.620Z,98949.94
2023-02-15T18:23:02.273Z,98948.72
2023-02-15T18:25:28.962Z,98949.34
2023-02-15T18:27:57.477Z,98951.31
2023-02-15T18:30:26.848Z,98946.06
2023-02-15T18:32:56.816Z,98945.06
2023-02-15T18:35:26.850Z,98960.72
2023-02-15T18:37:54.068Z,98957.66
2023-02-15T18:40:24.861Z,98965.50
2023-02-15T18:42:53.168Z,98955.38
2023-02-15T18:45:32.823Z,98960.22
2023-02-15T18:48:01.352Z,98958.94
2023-02-15T18:50:33.270Z,98963.19
2023-02-15T18:53:07.519Z,98964.66
2023-02-15T18:55:35.446Z,98961.69
2023-02-15T18:58:02.179Z,98968.22
2023-02-15T19:00:34.872Z,98959.81
2023-02-15T19:03:02.295Z,98960.88
2023-02-15T19:05:31.857Z,98958.03
2023-02-15T19:08:01.159Z,98955.94
2023-02-15T19:10:30.602Z,98960.59
2023-02-15T19:12:57.650Z,98961.16
2023-02-15T19:15:27.553Z,98955.09
2023-02-15T19:17:56.498Z,98953.31
2023-02-15T19:20:29.819Z,98955.50
2023-02-15T19:23:00.458Z,98957.66
2023-02-15T19:25:32.635Z,98955.38
2023-02-15T19:27:59.283Z,98956.06
2023-02-15T19:30:29.847Z,98966.81
2023-02-15T19:33:01.444Z,98966.09
2023-02-15T19:35:32.067Z,98964.59
2023-02-15T19:38:01.875Z,98965.16
2023-02-15T19:40:31.679Z,98960.69
2023-02-15T19:42:58.305Z,98972.69
2023-02-15T19:45:27.513Z,98963.66
2023-02-15T19:47:55.456Z,98978.97
2023-02-15T19:50:25.632Z,98972.84
2023-02-15T19:52:52.472Z,98964.59
2023-02-15T19:55:22.727Z,98964.59
2023-02-15T19:57:51.580Z,98958.47
2023-02-15T20:00:24.054Z,98966.25
2023-02-15T20:02:50.606Z,98958.25
2023-02-15T20:05:17.177Z,98949.47
2023-02-15T20:07:54.191Z,98952.13
2023-02-15T20:10:32.395Z,98952.91
2023-02-15T20:12:59.013Z,98953.72
2023-02-15T20:15:30.751Z,98956.72
2023-02-15T20:17:59.110Z,98955.16
2023-02-15T20:20:48.120Z,98942.81
2023-02-15T20:23:21.849Z,98949.00
2023-02-15T20:25:51.120Z,98948.00
2023-02-15T20:28:21.577Z,98945.91
2023-02-15T20:30:48.908Z,98949.94
2023-02-15T20:33:16.708Z,98949.94
2023-02-15T20:35:44.692Z,98957.88
2023-02-15T20:38:32.329Z,98959.25
2023-02-15T20:41:19.028Z,98964.09
2023-02-15T20:43:45.551Z,98955.28
2023-02-15T20:46:12.077Z,98959.13
2023-02-15T20:48:38.638Z,98967.81
2023-02-15T20:51:05.800Z,98962.44
2023-02-15T20:53:33.006Z,98963.41
2023-02-15T20:55:59.895Z,98962.19
2023-02-15T20:58:29.541Z,98960.31
2023-02-15T21:00:58.589Z,98955.41
2023-02-15T21:03:32.365Z,98942.66
2023-02-15T21:05:59.200Z,98932.66
2023-02-15T21:08:26.606Z,98936.25
2023-02-15T21:10:58.417Z,98932.97
2023-02-15T21:13:34.260Z,98930.25
2023-02-15T21:16:01.668Z,98926.91
2023-02-15T21:18:33.472Z,98932.78
2023-02-15T21:21:02.971Z,98940.94
2023-02-15T21:23:36.057Z,98941.03
2023-02-15T21:26:02.836Z,98950.06
2023-02-15T21:28:30.175Z,98954.63
2023-02-15T21:30:58.395Z,98945.56
2023-02-15T21:33:25.967Z,98955.19
2023-02-15T21:35:56.081Z,98956.22
2023-02-15T21:38:25.276Z,98945.63
2023-02-15T21:40:52.104Z,98947.13
2023-02-15T21:43:42.363Z,98949.53
2023-02-15T21:46:38.656Z,98954.25
2023-02-15T21:49:07.265Z,98959.72
2023-02-15T21:51:53.156Z,98960.78
2023-02-15T21:54:22.693Z,98953.41
2023-02-15T21:56:51.393Z,98949.31
2023-02-15T21:59:22.797Z,98950.22
2023-02-15T22:01:52.796Z,98952.16
2023-02-15T22:04:28.107Z,98953.81
2023-02-15T22:06:55.579Z,98960.69
2023-02-15T22:09:27.582Z,98960.50
2023-02-15T22:11:54.716Z,98970.41
2023-02-15T22:14:35.515Z,98958.75
2023-02-15T22:17:02.952Z,98952.53
2023-02-15T22:19:31.745Z,98959.72
2023-02-15T22:21:58.558Z,98969.56
2023-02-15T22:24:25.114Z,98966.88
2023-02-15T22:26:51.744Z,98963.44
2023-02-15T22:29:24.049Z,98965.06
2023-02-15T22:31:50.611Z,98975.50
2023-02-15T22:34:31.671Z,98971.88
2023-02-15T22:36:59.010Z,98984.00
2023-02-15T22:39:25.875Z,98976.59
2023-02-15T22:41:55.155Z,98993.66
2023-02-15T22:44:29.198Z,98999.25
2023-02-15T22:46:56.294Z,99000.38
2023-02-15T22:49:24.557Z,99000.41
2023-02-15T22:51:51.488Z,99003.16
2023-02-15T22:54:19.058Z,99001.63
2023-02-15T22:56:53.757Z,98995.59
2023-02-15T22:59:28.815Z,99009.19
2023-02-15T23:01:59.455Z,99012.72
2023-02-15T23:04:28.981Z,99014.06
2023-02-15T23:06:58.994Z,99013.59
2023-02-15T23:09:27.260Z,99009.88
2023-02-15T23:11:54.288Z,99007.50
2023-02-15T23:14:29.291Z,99010.19
2023-02-15T23:16:58.104Z,99016.59
2023-02-15T23:19:24.643Z,99012.28
2023-02-15T23:21:51.502Z,99014.44
2023-02-15T23:24:24.334Z,99014.75
2023-02-15T23:26:51.150Z,99013.94
2023-02-15T23:29:23.288Z,99012.34
2023-02-15T23:31:54.261Z,99007.50
2023-02-15T23:34:32.521Z,99007.50
2023-02-15T23:36:59.294Z,99009.63
2023-02-15T23:39:46.974Z,99017.09
2023-02-15T23:42:24.916Z,99016.31
2023-02-15T23:44:53.504Z,99020.28
2023-02-15T23:47:43.930Z,99014.44
2023-02-15T23:50:17.955Z,99016.25
2023-02-15T23:52:44.437Z,99025.84
2023-02-15T23:55:15.360Z,99031.16
2023-02-15T23:57:48.910Z,99032.50
